createdAt,value
2023-04-16T00:00:46.413Z,100414.53
2023-04-16T00:03:31.567Z,100410.91
2023-04-16T00:05:59.450Z,100374.84
2023-04-16T00:08:26.903Z,100407.00
2023-04-16T00:10:54.482Z,100415.47
2023-04-16T00:13:22.722Z,100404.81
2023-04-16T00:15:50.257Z,100412.38
2023-04-16T00:18:17.462Z,100408.53
2023-04-16T00:20:45.110Z,100407.38
2023-04-16T00:23:12.301Z,100386.47
2023-04-16T00:25:39.840Z,100380.38
2023-04-16T00:28:07.565Z,100406.53
2023-04-16T00:30:36.025Z,100413.50
2023-04-16T00:33:04.787Z,100410.50
2023-04-16T00:35:32.413Z,100404.88
2023-04-16T00:37:59.668Z,100388.91
2023-04-16T00:40:30.726Z,100382.28
2023-04-16T00:42:57.952Z,100411.47
2023-04-16T00:45:25.470Z,100403.69
2023-04-16T00:47:52.782Z,100391.22
2023-04-16T00:50:20.369Z,100383.31
2023-04-16T00:52:48.958Z,100413.25
2023-04-16T00:55:18.902Z,100419.13
2023-04-16T00:57:46.246Z,100384.09
2023-04-16T01:00:14.170Z,100403.84
2023-04-16T01:02:41.983Z,100419.09
2023-04-16T01:05:09.728Z,100419.94
2023-04-16T01:07:36.956Z,100396.66
2023-04-16T01:10:04.768Z,100427.03
2023-04-16T01:12:32.639Z,100421.69
2023-04-16T01:15:00.779Z,100423.63
2023-04-16T01:17:28.045Z,100428.66
2023-04-16T01:20:00.215Z,100408.97
2023-04-16T01:22:30.342Z,100422.31
2023-04-16T01:24:57.842Z,100425.84
2023-04-16T01:27:25.063Z,100422.47
2023-04-16T01:29:52.746Z,100389.44
2023-04-16T01:32:26.180Z,100416.03
2023-04-16T01:34:53.651Z,100417.38
2023-04-16T01:37:21.490Z,100416.75
2023-04-16T01:39:48.907Z,100417.03
2023-04-16T01:42:16.137Z,100414.59
2023-04-16T01:44:43.980Z,100412.72
2023-04-16T01:47:11.167Z,100419.06
2023-04-16T01:49:38.734Z,100420.06
2023-04-16T01:52:08.431Z,100411.03
2023-04-16T01:54:35.955Z,100410.31
2023-04-16T01:57:03.282Z,100410.91
2023-04-16T01:59:30.853Z,100416.38
2023-04-16T02:02:11.489Z,100419.81
2023-04-16T02:04:41.109Z,100406.91
2023-04-16T02:07:09.155Z,100414.94
2023-04-16T02:09:37.907Z,100414.22
2023-04-16T02:12:07.789Z,100421.91
2023-04-16T02:14:35.373Z,100416.66
2023-04-16T02:17:02.564Z,100414.06
2023-04-16T02:19:43.419Z,100410.56
2023-04-16T02:22:11.014Z,100411.81
2023-04-16T02:24:38.574Z,100414.09
2023-04-16T02:27:09.094Z,100415.69
2023-04-16T02:29:36.851Z,100413.94
2023-04-16T02:32:16.611Z,100407.00
2023-04-16T02:34:46.151Z,100418.09
2023-04-16T02:37:15.453Z,100414.22
2023-04-16T02:39:44.083Z,100413.84
2023-04-16T02:42:11.290Z,100424.09
2023-04-16T02:44:38.874Z,100420.69
2023-04-16T02:47:06.039Z,100423.47
2023-04-16T02:49:33.702Z,100418.38
2023-04-16T02:52:00.990Z,100426.06
2023-04-16T02:54:28.432Z,100429.22
2023-04-16T02:56:55.671Z,100438.44
2023-04-16T02:59:23.199Z,100424.47
2023-04-16T03:01:50.630Z,100428.59
2023-04-16T03:04:18.325Z,100419.47
2023-04-16T03:06:45.647Z,100434.19
2023-04-16T03:09:13.346Z,100433.47
2023-04-16T03:11:40.711Z,100422.53
2023-04-16T03:14:08.312Z,100425.19
2023-04-16T03:16:35.532Z,100430.56
2023-04-16T03:19:03.010Z,100444.16
2023-04-16T03:21:30.231Z,100439.44
2023-04-16T03:23:59.193Z,100435.06
2023-04-16T03:26:26.466Z,100425.69
2023-04-16T03:28:54.914Z,100434.19
2023-04-16T03:31:24.880Z,100425.09
2023-04-16T03:33:53.031Z,100439.91
2023-04-16T03:36:20.551Z,100433.19
2023-04-16T03:38:51.429Z,100430.28
2023-04-16T03:41:19.797Z,100429.91
2023-04-16T03:43:47.340Z,100441.44
2023-04-16T03:46:14.517Z,100446.56
2023-04-16T03:48:42.070Z,100440.25
2023-04-16T03:51:09.268Z,100437.31
2023-04-16T03:53:36.831Z,100442.34
2023-04-16T03:56:04.208Z,100451.19
2023-04-16T03:58:31.862Z,100443.00
2023-04-16T04:00:59.018Z,100445.06
2023-04-16T04:03:26.694Z,100449.25
2023-04-16T04:05:55.391Z,100450.91
2023-04-16T04:08:29.201Z,100452.56
2023-04-16T04:10:56.626Z,100463.31
2023-04-16T04:13:25.452Z,100460.78
2023-04-16T04:15:53.593Z,100472.69
2023-04-16T04:18:22.016Z,100461.94
2023-04-16T04:20:49.344Z,100471.41
2023-04-16T04:23:19.863Z,100473.81
2023-04-16T04:25:47.749Z,100465.31
2023-04-16T04:28:15.703Z,100470.63
2023-04-16T04:30:43.128Z,100480.44
2023-04-16T04:33:11.077Z,100476.19
2023-04-16T04:35:39.039Z,100478.88
2023-04-16T04:38:06.707Z,100484.84
2023-04-16T04:40:34.572Z,100482.28
2023-04-16T04:43:02.032Z,100482.19
2023-04-16T04:45:31.694Z,100486.16
2023-04-16T04:47:59.590Z,100479.78
2023-04-16T04:50:26.853Z,100485.97
2023-04-16T04:52:54.367Z,100492.97
2023-04-16T04:55:22.567Z,100484.94
2023-04-16T04:57:51.363Z,100487.53
2023-04-16T05:00:18.609Z,100496.13
2023-04-16T05:02:53.465Z,100499.53
2023-04-16T05:05:20.914Z,100494.91
2023-04-16T05:07:48.448Z,100497.72
2023-04-16T05:10:15.841Z,100497.28
2023-04-16T05:12:43.294Z,100497.13
2023-04-16T05:15:10.796Z,100497.06
2023-04-16T05:17:38.310Z,100498.59
2023-04-16T05:20:06.260Z,100495.41
2023-04-16T05:22:33.723Z,100506.28
2023-04-16T05:25:01.205Z,100496.88
2023-04-16T05:27:28.747Z,100513.31
2023-04-16T05:29:56.213Z,100516.50
2023-04-16T05:32:26.700Z,100510.94
2023-04-16T05:34:54.005Z,100511.69
2023-04-16T05:37:21.512Z,100528.94
2023-04-16T05:39:49.023Z,100516.19
2023-04-16T05:42:16.563Z,100528.47
2023-04-16T05:44:44.028Z,100521.22
2023-04-16T05:47:11.476Z,100523.31
2023-04-16T05:49:38.653Z,100535.56
2023-04-16T05:52:07.455Z,100525.22
2023-04-16T05:54:34.728Z,100528.63
2023-04-16T05:57:02.438Z,100537.72
2023-04-16T05:59:30.944Z,100537.00
2023-04-16T06:01:58.689Z,100535.72
2023-04-16T06:04:26.025Z,100543.06
2023-04-16T06:06:53.560Z,100535.84
2023-04-16T06:09:20.924Z,100541.75
2023-04-16T06:11:49.209Z,100541.91
2023-04-16T06:14:16.439Z,100534.81
2023-04-16T06:16:44.145Z,100544.22
2023-04-16T06:19:11.539Z,100544.84
2023-04-16T06:21:39.228Z,100553.03
2023-04-16T06:24:06.538Z,100552.81
2023-04-16T06:26:33.959Z,100550.06
2023-04-16T06:29:01.184Z,100556.97
2023-04-16T06:31:29.787Z,100562.59
2023-04-16T06:33:57.095Z,100563.63
2023-04-16T06:36:24.577Z,100565.44
2023-04-16T06:38:51.754Z,100561.34
2023-04-16T06:41:19.342Z,100574.00
2023-04-16T06:43:46.808Z,100571.13
2023-04-16T06:46:14.454Z,100563.72
2023-04-16T06:48:41.636Z,100564.13
2023-04-16T06:51:09.255Z,100568.66
2023-04-16T06:53:37.679Z,100571.13
2023-04-16T06:56:05.629Z,100566.34
2023-04-16T06:58:33.062Z,100570.81
2023-04-16T07:01:00.658Z,100579.13
2023-04-16T07:03:28.359Z,100571.19
2023-04-16T07:05:57.035Z,100579.44
2023-04-16T07:08:24.969Z,100573.31
2023-04-16T07:10:53.907Z,100573.84
2023-04-16T07:13:21.701Z,100584.22
2023-04-16T07:15:49.218Z,100588.88
2023-04-16T07:18:16.788Z,100581.41
2023-04-16T07:20:44.240Z,100589.13
2023-04-16T07:23:11.550Z,100582.84
2023-04-16T07:25:39.361Z,100585.88
2023-04-16T07:28:06.556Z,100583.47
2023-04-16T07:30:34.828Z,100586.28
2023-04-16T07:33:05.083Z,100593.44
2023-04-16T07:35:32.711Z,100590.53
2023-04-16T07:37:59.870Z,100592.63
2023-04-16T07:40:27.645Z,100588.38
2023-04-16T07:42:56.150Z,100608.66
2023-04-16T07:45:24.010Z,100598.19
2023-04-16T07:47:51.343Z,100607.66
2023-04-16T07:50:19.564Z,100607.25
2023-04-16T07:52:47.700Z,100603.09
2023-04-16T07:55:15.148Z,100602.97
2023-04-16T07:57:42.324Z,100608.25
2023-04-16T08:00:10.854Z,100616.53
2023-04-16T08:02:41.773Z,100601.66
2023-04-16T08:05:09.584Z,100601.34
2023-04-16T08:07:36.838Z,100606.38
2023-04-16T08:10:05.436Z,100625.34
2023-04-16T08:12:33.331Z,100618.19
2023-04-16T08:15:00.834Z,100617.97
2023-04-16T08:17:29.614Z,100625.00
2023-04-16T08:19:57.235Z,100615.81
2023-04-16T08:22:24.615Z,100622.75
2023-04-16T08:24:52.492Z,100624.56
2023-04-16T08:27:20.444Z,100632.44
2023-04-16T08:29:48.607Z,100634.75
2023-04-16T08:32:15.931Z,100631.16
2023-04-16T08:34:43.695Z,100629.44
2023-04-16T08:37:10.997Z,100626.81
2023-04-16T08:39:38.541Z,100634.91
2023-04-16T08:42:12.083Z,100626.09
2023-04-16T08:44:49.232Z,100639.19
2023-04-16T08:47:16.820Z,100636.84
2023-04-16T08:49:48.218Z,100633.72
2023-04-16T08:52:19.546Z,100643.78
2023-04-16T08:55:15.550Z,100635.13
2023-04-16T08:57:57.704Z,100633.19
2023-04-16T09:00:25.582Z,100646.53
2023-04-16T09:02:53.934Z,100648.50
2023-04-16T09:05:25.777Z,100657.41
2023-04-16T09:07:54.682Z,100654.28
2023-04-16T09:10:22.534Z,100659.00
2023-04-16T09:12:49.940Z,100663.25
2023-04-16T09:15:17.401Z,100663.09
2023-04-16T09:17:44.701Z,100655.28
2023-04-16T09:20:12.695Z,100665.97
2023-04-16T09:22:42.704Z,100670.72
2023-04-16T09:25:11.351Z,100661.88
2023-04-16T09:27:39.387Z,100668.53
2023-04-16T09:30:21.960Z,100666.47
2023-04-16T09:32:50.223Z,100672.63
2023-04-16T09:35:21.233Z,100664.53
2023-04-16T09:37:57.113Z,100681.06
2023-04-16T09:40:26.841Z,100681.13
2023-04-16T09:42:58.206Z,100682.16
2023-04-16T09:45:25.686Z,100679.91
2023-04-16T09:47:52.878Z,100687.50
2023-04-16T09:50:20.685Z,100686.91
2023-04-16T09:52:51.723Z,100681.38
2023-04-16T09:55:27.884Z,100695.56
2023-04-16T09:58:02.101Z,100694.78
2023-04-16T10:00:31.539Z,100697.91
2023-04-16T10:03:07.319Z,100702.00
2023-04-16T10:05:35.356Z,100703.72
2023-04-16T10:08:03.363Z,100701.19
2023-04-16T10:10:30.987Z,100697.00
2023-04-16T10:12:58.547Z,100682.66
2023-04-16T10:15:26.551Z,100701.38
2023-04-16T10:17:54.383Z,100706.28
2023-04-16T10:20:23.988Z,100706.06
2023-04-16T10:22:51.658Z,100708.03
2023-04-16T10:25:19.721Z,100696.94
2023-04-16T10:27:47.786Z,100709.72
2023-04-16T10:30:16.958Z,100708.59
2023-04-16T10:32:46.538Z,100698.56
2023-04-16T10:35:20.501Z,100699.84
2023-04-16T10:37:47.683Z,100698.69
2023-04-16T10:40:23.813Z,100708.03
2023-04-16T10:42:58.806Z,100701.03
2023-04-16T10:45:53.889Z,100711.31
2023-04-16T10:48:21.395Z,100708.53
2023-04-16T10:50:57.475Z,100708.53
2023-04-16T10:53:26.882Z,100727.25
2023-04-16T10:55:57.569Z,100727.88
2023-04-16T10:58:29.986Z,100724.16
2023-04-16T11:01:01.740Z,100725.47
2023-04-16T11:03:32.506Z,100727.13
2023-04-16T11:06:27.738Z,100732.38
2023-04-16T11:08:55.572Z,100738.72
2023-04-16T11:11:23.794Z,100731.97
2023-04-16T11:13:56.445Z,100734.97
2023-04-16T11:16:25.587Z,100742.22
2023-04-16T11:18:53.957Z,100739.53
2023-04-16T11:21:24.324Z,100747.44
2023-04-16T11:23:53.397Z,100753.44
2023-04-16T11:26:24.153Z,100750.63
2023-04-16T11:28:52.002Z,100751.03
2023-04-16T11:31:19.611Z,100749.16
2023-04-16T11:33:47.117Z,100753.31
2023-04-16T11:36:14.757Z,100754.78
2023-04-16T11:38:43.025Z,100758.81
2023-04-16T11:41:11.262Z,100757.09
2023-04-16T11:43:38.446Z,100760.50
2023-04-16T11:46:16.579Z,100750.78
2023-04-16T11:48:55.627Z,100765.00
2023-04-16T11:51:23.720Z,100772.09
2023-04-16T11:53:56.285Z,100765.84
2023-04-16T11:56:32.956Z,100767.91
2023-04-16T11:59:19.341Z,100776.41
2023-04-16T12:01:56.238Z,100767.78
2023-04-16T12:04:26.075Z,100774.22
2023-04-16T12:07:16.030Z,100771.28
2023-04-16T12:09:44.130Z,100774.34
2023-04-16T12:12:32.500Z,100772.56
2023-04-16T12:15:03.285Z,100772.78
2023-04-16T12:17:35.722Z,100771.84
2023-04-16T12:20:08.450Z,100770.88
2023-04-16T12:22:37.712Z,100767.06
2023-04-16T12:25:13.520Z,100785.75
2023-04-16T12:27:53.781Z,100780.84
2023-04-16T12:30:28.527Z,100788.00
2023-04-16T12:33:16.682Z,100792.25
2023-04-16T12:35:45.038Z,100785.63
2023-04-16T12:38:14.279Z,100780.47
2023-04-16T12:40:42.032Z,100775.06
2023-04-16T12:43:10.054Z,100789.59
2023-04-16T12:45:38.545Z,100777.94
2023-04-16T12:48:06.940Z,100785.88
2023-04-16T12:50:34.315Z,100794.53
2023-04-16T12:53:01.930Z,100783.19
2023-04-16T12:55:29.330Z,100785.16
2023-04-16T12:57:56.850Z,100793.88
2023-04-16T13:00:24.221Z,100792.84
2023-04-16T13:02:51.774Z,100782.94
2023-04-16T13:05:19.700Z,100792.81
2023-04-16T13:07:47.038Z,100800.88
2023-04-16T13:10:14.609Z,100787.06
2023-04-16T13:12:41.890Z,100799.53
2023-04-16T13:15:10.672Z,100797.03
2023-04-16T13:17:37.909Z,100792.69
2023-04-16T13:20:06.000Z,100797.06
2023-04-16T13:22:33.782Z,100797.78
2023-04-16T13:25:01.276Z,100805.94
2023-04-16T13:27:30.361Z,100802.66
2023-04-16T13:29:57.865Z,100807.78
2023-04-16T13:32:25.065Z,100800.47
2023-04-16T13:34:52.605Z,100809.56
2023-04-16T13:37:19.879Z,100793.84
2023-04-16T13:39:47.480Z,100797.94
2023-04-16T13:42:14.675Z,100801.84
2023-04-16T13:44:42.747Z,100803.00
2023-04-16T13:47:09.963Z,100810.28
2023-04-16T13:49:37.500Z,100813.91
2023-04-16T13:52:04.933Z,100814.47
2023-04-16T13:54:32.527Z,100813.97
2023-04-16T13:56:59.789Z,100803.94
2023-04-16T13:59:27.497Z,100805.81
2023-04-16T14:01:54.787Z,100811.25
2023-04-16T14:04:22.641Z,100807.56
2023-04-16T14:06:50.694Z,100804.03
2023-04-16T14:09:18.327Z,100801.16
2023-04-16T14:11:45.590Z,100805.25
2023-04-16T14:14:13.136Z,100807.72
2023-04-16T14:16:40.538Z,100797.38
2023-04-16T14:19:08.127Z,100807.88
2023-04-16T14:21:35.989Z,100811.47
2023-04-16T14:24:04.168Z,100814.84
2023-04-16T14:26:31.618Z,100815.34
2023-04-16T14:28:59.147Z,100813.69
2023-04-16T14:31:27.191Z,100815.19
2023-04-16T14:33:54.738Z,100812.97
2023-04-16T14:36:21.934Z,100821.03
2023-04-16T14:38:49.514Z,100813.56
2023-04-16T14:41:16.880Z,100817.84
2023-04-16T14:43:45.018Z,100813.31
2023-04-16T14:46:12.557Z,100809.63
2023-04-16T14:48:40.108Z,100809.97
2023-04-16T14:51:07.332Z,100806.97
2023-04-16T14:53:36.593Z,100816.25
2023-04-16T14:56:04.960Z,100818.53
2023-04-16T14:58:32.766Z,100813.16
2023-04-16T15:01:00.668Z,100813.03
2023-04-16T15:03:29.741Z,100823.94
2023-04-16T15:05:58.065Z,100827.34
2023-04-16T15:08:25.578Z,100820.75
2023-04-16T15:10:52.805Z,100838.59
2023-04-16T15:13:20.425Z,100832.72
2023-04-16T15:15:48.134Z,100831.59
2023-04-16T15:18:16.534Z,100822.91
2023-04-16T15:20:43.819Z,100833.25
2023-04-16T15:23:11.373Z,100826.38
2023-04-16T15:25:38.549Z,100832.03
2023-04-16T15:28:06.581Z,100833.03
2023-04-16T15:30:33.963Z,100842.53
2023-04-16T15:33:01.696Z,100840.22
2023-04-16T15:35:29.396Z,100847.53
2023-04-16T15:37:56.886Z,100844.13
2023-04-16T15:40:25.469Z,100834.00
2023-04-16T15:42:52.984Z,100849.81
2023-04-16T15:45:20.235Z,100851.59
2023-04-16T15:47:51.114Z,100843.53
2023-04-16T15:50:19.516Z,100855.03
2023-04-16T15:52:47.683Z,100861.13
2023-04-16T15:55:16.718Z,100853.75
2023-04-16T15:57:44.333Z,100846.69
2023-04-16T16:00:13.991Z,100851.72
2023-04-16T16:02:42.610Z,100855.41
2023-04-16T16:05:11.934Z,100853.13
2023-04-16T16:07:40.339Z,100858.41
2023-04-16T16:10:09.464Z,100859.72
2023-04-16T16:12:37.666Z,100858.75
2023-04-16T16:15:06.571Z,100858.28
2023-04-16T16:17:34.186Z,100859.28
2023-04-16T16:20:01.745Z,100869.53
2023-04-16T16:22:29.982Z,100861.09
2023-04-16T16:24:58.205Z,100869.50
2023-04-16T16:27:25.931Z,100868.03
2023-04-16T16:29:53.335Z,100870.84
2023-04-16T16:32:21.077Z,100873.66
2023-04-16T16:34:48.800Z,100872.72
2023-04-16T16:37:16.426Z,100871.97
2023-04-16T16:39:43.767Z,100866.09
2023-04-16T16:42:11.375Z,100869.63
2023-04-16T16:44:39.287Z,100883.09
2023-04-16T16:47:07.006Z,100882.50
2023-04-16T16:49:34.391Z,100870.91
2023-04-16T16:52:01.902Z,100873.66
2023-04-16T16:54:29.162Z,100874.28
2023-04-16T16:56:56.985Z,100872.59
2023-04-16T16:59:24.302Z,100876.00
2023-04-16T17:01:51.824Z,100878.34
2023-04-16T17:04:20.316Z,100882.84
2023-04-16T17:06:48.451Z,100892.63
2023-04-16T17:09:15.878Z,100890.91
2023-04-16T17:11:43.803Z,100883.53
2023-04-16T17:14:11.506Z,100882.72
2023-04-16T17:16:39.268Z,100894.91
2023-04-16T17:19:06.764Z,100885.97
2023-04-16T17:21:34.472Z,100893.16
2023-04-16T17:24:01.812Z,100887.22
2023-04-16T17:26:29.528Z,100894.38
2023-04-16T17:28:57.641Z,100882.97
2023-04-16T17:31:27.311Z,100890.13
2023-04-16T17:33:54.760Z,100896.13
2023-04-16T17:36:23.288Z,100903.44
2023-04-16T17:38:50.765Z,100903.78
2023-04-16T17:41:18.652Z,100904.28
2023-04-16T17:43:49.622Z,100913.47
2023-04-16T17:46:17.329Z,100913.22
2023-04-16T17:48:44.569Z,100917.50
2023-04-16T17:51:12.431Z,100918.19
2023-04-16T17:53:39.722Z,100915.69
2023-04-16T17:56:07.291Z,100911.16
2023-04-16T17:58:35.424Z,100917.75
2023-04-16T18:01:03.768Z,100918.06
2023-04-16T18:03:32.637Z,100907.44
2023-04-16T18:06:00.712Z,100912.47
2023-04-16T18:08:28.802Z,100916.06
2023-04-16T18:10:56.901Z,100920.94
2023-04-16T18:13:24.668Z,100925.06
2023-04-16T18:15:53.046Z,100925.28
2023-04-16T18:18:21.430Z,100926.50
2023-04-16T18:20:49.064Z,100922.00
2023-04-16T18:23:16.407Z,100937.34
2023-04-16T18:25:44.557Z,100932.44
2023-04-16T18:28:14.018Z,100934.13
2023-04-16T18:30:42.806Z,100929.28
2023-04-16T18:33:38.903Z,100939.31
2023-04-16T18:36:04.889Z,100944.66
2023-04-16T18:38:32.460Z,100956.63
2023-04-16T18:41:00.117Z,100958.16
2023-04-16T18:43:27.462Z,100953.16
2023-04-16T18:45:55.040Z,100955.09
2023-04-16T18:48:22.281Z,100947.81
2023-04-16T18:50:49.776Z,100939.03
2023-04-16T18:53:17.336Z,100949.56
2023-04-16T18:55:45.020Z,100957.91
2023-04-16T18:58:12.284Z,100954.25
2023-04-16T19:00:40.150Z,100952.25
2023-04-16T19:03:07.806Z,100954.03
2023-04-16T19:05:35.629Z,100953.72
2023-04-16T19:08:03.025Z,100961.56
2023-04-16T19:10:30.772Z,100960.81
2023-04-16T19:12:58.234Z,100956.00
2023-04-16T19:15:25.845Z,100959.44
2023-04-16T19:17:53.142Z,100957.53
2023-04-16T19:20:21.111Z,100962.22
2023-04-16T19:22:48.433Z,100961.50
2023-04-16T19:25:16.109Z,100962.97
2023-04-16T19:27:43.333Z,100961.34
2023-04-16T19:30:11.402Z,100971.41
2023-04-16T19:32:38.780Z,100963.69
2023-04-16T19:35:07.104Z,100968.84
2023-04-16T19:37:34.432Z,100970.16
2023-04-16T19:40:02.231Z,100972.28
2023-04-16T19:42:29.505Z,100975.09
2023-04-16T19:44:57.126Z,100972.31
2023-04-16T19:47:24.500Z,100974.50
2023-04-16T19:49:52.253Z,100979.16
2023-04-16T19:52:19.736Z,100978.72
2023-04-16T19:54:47.907Z,100980.88
2023-04-16T19:57:15.160Z,100969.72
2023-04-16T19:59:42.706Z,100982.16
2023-04-16T20:02:09.992Z,100977.22
2023-04-16T20:04:37.689Z,100976.91
2023-04-16T20:07:05.003Z,100981.16
2023-04-16T20:09:32.585Z,100980.22
2023-04-16T20:12:00.790Z,100984.16
2023-04-16T20:14:28.262Z,100985.31
2023-04-16T20:16:55.569Z,100972.47
2023-04-16T20:19:26.421Z,100985.31
2023-04-16T20:21:53.644Z,100978.06
2023-04-16T20:24:23.949Z,100975.72
2023-04-16T20:26:51.254Z,100980.84
2023-04-16T20:29:18.755Z,100973.16
2023-04-16T20:31:46.345Z,100971.44
2023-04-16T20:34:13.985Z,100975.69
2023-04-16T20:36:41.273Z,100976.66
2023-04-16T20:39:09.835Z,100965.75
2023-04-16T20:41:40.215Z,100972.06
2023-04-16T20:44:10.102Z,100979.22
2023-04-16T20:46:40.346Z,100984.94
2023-04-16T20:49:08.490Z,100977.56
2023-04-16T20:51:38.011Z,100982.03
2023-04-16T20:54:08.182Z,100980.09
2023-04-16T20:56:35.399Z,100983.94
2023-04-16T20:59:02.990Z,100982.53
2023-04-16T21:01:30.311Z,100979.34
2023-04-16T21:03:58.061Z,100987.91
2023-04-16T21:06:25.616Z,100991.03
2023-04-16T21:08:53.220Z,100991.78
2023-04-16T21:11:20.838Z,100993.03
2023-04-16T21:13:48.393Z,100997.88
2023-04-16T21:16:15.696Z,100991.66
2023-04-16T21:18:43.213Z,100977.66
2023-04-16T21:21:10.615Z,100993.06
2023-04-16T21:23:38.126Z,100991.34
2023-04-16T21:26:05.450Z,100990.91
2023-04-16T21:28:33.034Z,100985.75
2023-04-16T21:31:00.391Z,100989.84
2023-04-16T21:33:27.944Z,100989.22
2023-04-16T21:35:55.217Z,100984.28
2023-04-16T21:38:23.082Z,100982.34
2023-04-16T21:40:53.888Z,100972.06
2023-04-16T21:43:22.486Z,100987.72
2023-04-16T21:45:53.132Z,100984.94
2023-04-16T21:48:21.201Z,100983.19
2023-04-16T21:51:06.219Z,100981.94
2023-04-16T21:53:34.411Z,100977.88
2023-04-16T21:56:01.676Z,100974.31
2023-04-16T21:58:29.261Z,100978.41
2023-04-16T22:00:56.563Z,100980.53
2023-04-16T22:03:28.009Z,100976.56
2023-04-16T22:06:02.740Z,100974.53
2023-04-16T22:08:30.617Z,100979.59
2023-04-16T22:11:02.328Z,100974.00
2023-04-16T22:13:32.437Z,100980.75
2023-04-16T22:16:03.625Z,100980.09
2023-04-16T22:18:34.044Z,100986.44
2023-04-16T22:21:02.155Z,100992.84
2023-04-16T22:23:30.431Z,100988.97
2023-04-16T22:25:57.612Z,100989.50
2023-04-16T22:28:25.080Z,100989.84
2023-04-16T22:30:52.259Z,100989.28
2023-04-16T22:33:19.733Z,100982.47
2023-04-16T22:35:46.966Z,100992.00
2023-04-16T22:38:14.552Z,100985.34
2023-04-16T22:40:41.761Z,100993.72
2023-04-16T22:43:09.329Z,100998.63
2023-04-16T22:45:37.579Z,101001.19
2023-04-16T22:48:05.275Z,100994.53
2023-04-16T22:50:32.572Z,100983.63
2023-04-16T22:53:00.088Z,101003.56
2023-04-16T22:55:27.261Z,100999.03
2023-04-16T22:57:54.691Z,101004.84
2023-04-16T23:00:22.021Z,101004.84
2023-04-16T23:02:49.688Z,101009.84
2023-04-16T23:05:16.940Z,101009.66
2023-04-16T23:07:44.480Z,101013.94
2023-04-16T23:10:11.667Z,101009.41
2023-04-16T23:12:39.296Z,101005.03
2023-04-16T23:15:07.086Z,101004.41
2023-04-16T23:17:35.274Z,101006.09
2023-04-16T23:20:02.938Z,100998.59
2023-04-16T23:22:30.562Z,101000.75
2023-04-16T23:24:57.742Z,101011.56
2023-04-16T23:27:25.232Z,101006.28
2023-04-16T23:29:52.459Z,101003.66
2023-04-16T23:32:19.966Z,101000.09
2023-04-16T23:34:47.147Z,101005.44
2023-04-16T23:37:14.670Z,101014.88
2023-04-16T23:39:42.014Z,101010.06
2023-04-16T23:42:09.494Z,101009.41
2023-04-16T23:44:36.791Z,101006.09
2023-04-16T23:47:04.566Z,101005.88
2023-04-16T23:49:31.817Z,101013.50
2023-04-16T23:51:59.317Z,101011.56
2023-04-16T23:54:26.629Z,101013.38
2023-04-16T23:56:54.099Z,101013.69
2023-04-16T23:59:21.298Z,101010.59
